createdAt,value
2018-05-11T00:00:15.821Z,971.5
2018-05-11T00:01:17.472Z,971.5
2018-05-11T00:02:19.126Z,971.5
2018-05-11T00:03:20.776Z,971.5
2018-05-11T00:04:22.429Z,971.5
2018-05-11T00:05:24.072Z,971.6
2018-05-11T00:06:25.715Z,971.5
2018-05-11T00:07:27.364Z,971.6
2018-05-11T00:08:29.016Z,971.6
2018-05-11T00:09:30.673Z,971.6
2018-05-11T00:10:32.313Z,971.6
2018-05-11T00:11:33.963Z,971.6
2018-05-11T00:12:35.610Z,971.6
2018-05-11T00:13:37.264Z,971.5
2018-05-11T00:14:38.920Z,971.5
2018-05-11T00:15:40.569Z,971.5
2018-05-11T00:16:42.231Z,971.6
2018-05-11T00:17:43.869Z,971.6
2018-05-11T00:18:45.523Z,971.6
2018-05-11T00:19:47.167Z,971.6
2018-05-11T00:20:48.816Z,971.6
2018-05-11T00:21:50.467Z,971.6
2018-05-11T00:22:52.118Z,971.6
2018-05-11T00:23:53.769Z,971.5
2018-05-11T00:24:55.421Z,971.6
2018-05-11T00:25:57.073Z,971.6
2018-05-11T00:26:58.728Z,971.6
2018-05-11T00:28:00.375Z,971.6
2018-05-11T00:29:02.016Z,971.6
2018-05-11T00:30:03.663Z,971.6
2018-05-11T00:31:05.314Z,971.7
2018-05-11T00:32:06.957Z,971.7
2018-05-11T00:33:08.605Z,971.7
2018-05-11T00:34:10.254Z,971.7
2018-05-11T00:35:11.890Z,971.7
2018-05-11T00:36:13.553Z,971.7
2018-05-11T00:37:15.205Z,971.7
2018-05-11T00:38:16.985Z,971.6
2018-05-11T00:39:18.636Z,971.7
2018-05-11T00:40:20.285Z,971.7
2018-05-11T00:41:21.927Z,971.7
2018-05-11T00:42:23.572Z,971.6
2018-05-11T00:43:25.228Z,971.6
2018-05-11T00:44:26.878Z,971.6
2018-05-11T00:45:28.528Z,971.6
2018-05-11T00:46:30.176Z,971.6
2018-05-11T00:47:31.826Z,971.6
2018-05-11T00:48:33.472Z,971.6
2018-05-11T00:49:35.120Z,971.6
2018-05-11T00:50:36.774Z,971.6
2018-05-11T00:51:38.427Z,971.6
2018-05-11T00:52:40.077Z,971.6
2018-05-11T00:53:41.735Z,971.6
2018-05-11T00:54:43.388Z,971.6
2018-05-11T00:55:45.033Z,971.6
2018-05-11T00:56:46.676Z,971.6
2018-05-11T00:57:48.360Z,971.6
2018-05-11T00:58:50.009Z,971.6
2018-05-11T00:59:51.660Z,971.7
2018-05-11T01:00:53.301Z,971.6
2018-05-11T01:01:54.955Z,971.7
2018-05-11T01:02:56.605Z,971.7
2018-05-11T01:03:58.258Z,971.7
2018-05-11T01:04:59.907Z,971.7
2018-05-11T01:06:01.561Z,971.7
2018-05-11T01:07:03.205Z,971.7
2018-05-11T01:08:04.867Z,971.7
2018-05-11T01:09:06.514Z,971.7
2018-05-11T01:10:08.160Z,971.7
2018-05-11T01:11:09.815Z,971.7
2018-05-11T01:12:11.467Z,971.7
2018-05-11T01:13:13.111Z,971.8
2018-05-11T01:14:14.767Z,971.7
2018-05-11T01:15:16.413Z,971.8
2018-05-11T01:16:18.103Z,971.8
2018-05-11T01:17:19.711Z,971.8
2018-05-11T01:18:21.351Z,971.8
2018-05-11T01:19:22.995Z,971.8
2018-05-11T01:20:24.650Z,971.9
2018-05-11T01:21:26.300Z,971.9
2018-05-11T01:22:27.949Z,971.9
2018-05-11T01:23:29.598Z,971.9
2018-05-11T01:24:31.242Z,971.9
2018-05-11T01:25:32.892Z,971.9
2018-05-11T01:26:34.538Z,971.9
2018-05-11T01:27:36.195Z,971.8
2018-05-11T01:28:37.852Z,971.9
2018-05-11T01:29:39.496Z,971.9
2018-05-11T01:30:41.142Z,971.9
2018-05-11T01:31:42.788Z,971.8
2018-05-11T01:32:44.439Z,971.8
2018-05-11T01:33:46.093Z,971.9
2018-05-11T01:34:47.761Z,971.9
2018-05-11T01:35:49.415Z,971.9
2018-05-11T01:36:51.080Z,971.9
2018-05-11T01:37:52.718Z,971.9
2018-05-11T01:38:54.369Z,971.9
2018-05-11T01:39:56.016Z,971.9
2018-05-11T01:40:57.663Z,971.9
2018-05-11T01:41:59.321Z,971.9
2018-05-11T01:43:00.972Z,971.9
2018-05-11T01:44:02.614Z,971.9
2018-05-11T01:45:04.265Z,971.8
2018-05-11T01:46:05.908Z,971.9
2018-05-11T01:47:07.560Z,971.9
2018-05-11T01:48:09.209Z,971.9
2018-05-11T01:49:10.870Z,971.8
2018-05-11T01:50:12.522Z,971.8
2018-05-11T01:51:14.167Z,971.8
2018-05-11T01:52:15.814Z,971.8
2018-05-11T01:53:17.473Z,971.7
2018-05-11T01:54:19.121Z,971.7
2018-05-11T01:55:20.766Z,971.7
2018-05-11T02:02:00.674Z,971.8
2018-05-11T02:03:02.335Z,971.8
2018-05-11T02:04:54.235Z,971.8
2018-05-11T02:05:55.877Z,971.8
2018-05-11T02:07:47.874Z,971.8
2018-05-11T02:08:49.518Z,971.8
2018-05-11T02:10:41.399Z,971.8
2018-05-11T02:11:43.044Z,971.8
2018-05-11T02:13:34.948Z,971.8
2018-05-11T02:14:36.592Z,971.8
2018-05-11T02:16:28.537Z,971.8
2018-05-11T02:17:30.188Z,971.8
2018-05-11T02:19:22.094Z,971.8
2018-05-11T02:20:23.734Z,971.8
2018-05-11T02:22:15.678Z,971.8
2018-05-11T02:23:17.325Z,971.8
2018-05-11T02:25:09.233Z,971.8
2018-05-11T02:26:10.893Z,971.8
2018-05-11T02:28:02.823Z,971.8
2018-05-11T02:29:04.467Z,971.8
2018-05-11T02:30:56.390Z,971.8
2018-05-11T02:31:58.033Z,971.8
2018-05-11T02:33:49.965Z,971.8
2018-05-11T02:34:51.602Z,971.8
2018-05-11T02:35:53.255Z,971.8
2018-05-11T02:36:54.900Z,971.8
2018-05-11T02:37:56.549Z,971.8
2018-05-11T02:38:58.193Z,971.8
2018-05-11T02:39:59.839Z,971.8
2018-05-11T02:41:01.490Z,971.8
2018-05-11T02:42:03.134Z,971.8
2018-05-11T02:43:04.785Z,971.8
2018-05-11T02:44:06.427Z,971.8
2018-05-11T02:45:08.065Z,971.8
2018-05-11T02:46:09.709Z,971.8
2018-05-11T02:47:11.366Z,971.8
2018-05-11T02:48:13.020Z,971.8
2018-05-11T02:49:14.663Z,971.8
2018-05-11T02:50:16.311Z,971.8
2018-05-11T02:51:17.961Z,971.8
2018-05-11T02:52:19.610Z,971.8
2018-05-11T02:53:21.251Z,971.8
2018-05-11T02:54:22.900Z,971.9
2018-05-11T02:55:24.558Z,971.8
2018-05-11T02:56:26.205Z,971.9
2018-05-11T02:57:27.853Z,971.9
2018-05-11T02:58:29.500Z,971.9
2018-05-11T02:59:31.148Z,971.9
2018-05-11T03:00:32.811Z,971.9
2018-05-11T03:01:34.466Z,971.8
2018-05-11T03:02:36.117Z,971.8
2018-05-11T03:03:37.760Z,971.9
2018-05-11T03:04:39.412Z,971.8
2018-05-11T03:05:41.059Z,971.8
2018-05-11T03:06:42.706Z,971.8
2018-05-11T03:07:44.357Z,971.8
2018-05-11T03:08:46.008Z,971.8
2018-05-11T03:09:47.670Z,971.7
2018-05-11T03:10:49.324Z,971.8
2018-05-11T03:11:50.976Z,971.8
2018-05-11T03:12:52.614Z,971.8
2018-05-11T03:13:54.270Z,971.8
2018-05-11T03:14:55.918Z,971.8
2018-05-11T03:15:57.574Z,971.8
2018-05-11T03:16:59.226Z,971.8
2018-05-11T03:18:00.873Z,971.8
2018-05-11T03:19:02.515Z,971.8
2018-05-11T03:20:04.347Z,971.8
2018-05-11T03:21:05.994Z,971.8
2018-05-11T03:22:07.656Z,971.9
2018-05-11T03:23:09.313Z,971.8
2018-05-11T03:24:10.965Z,971.8
2018-05-11T03:25:12.611Z,971.8
2018-05-11T03:26:14.260Z,971.8
2018-05-11T03:27:15.908Z,971.9
2018-05-11T03:28:17.559Z,971.9
2018-05-11T03:29:19.239Z,971.9
2018-05-11T03:30:20.894Z,971.9
2018-05-11T03:31:22.545Z,971.9
2018-05-11T03:32:24.192Z,971.9
2018-05-11T03:33:25.850Z,972.0
2018-05-11T03:34:27.508Z,972.0
2018-05-11T03:35:29.153Z,972.0
2018-05-11T03:36:30.810Z,972.0
2018-05-11T03:37:32.465Z,972.0
2018-05-11T03:38:34.109Z,971.9
2018-05-11T03:39:35.756Z,971.9
2018-05-11T03:40:37.406Z,972.0
2018-05-11T03:41:39.061Z,972.0
2018-05-11T03:42:40.720Z,972.0
2018-05-11T03:43:42.370Z,972.0
2018-05-11T03:44:44.021Z,972.0
2018-05-11T03:45:45.682Z,972.1
2018-05-11T03:46:47.348Z,972.0
2018-05-11T03:47:48.992Z,972.1
2018-05-11T03:48:50.645Z,972.0
2018-05-11T03:49:52.287Z,972.0
2018-05-11T03:50:53.940Z,972.0
2018-05-11T03:51:55.600Z,972.0
2018-05-11T03:52:57.251Z,972.0
2018-05-11T03:53:58.896Z,972.1
2018-05-11T03:55:00.549Z,972.1
2018-05-11T03:56:02.200Z,972.1
2018-05-11T03:57:03.846Z,972.1
2018-05-11T03:58:05.502Z,972.1
2018-05-11T03:59:07.160Z,972.1
2018-05-11T04:00:08.812Z,972.1
2018-05-11T04:01:10.458Z,972.1
2018-05-11T04:02:12.113Z,972.1
2018-05-11T04:03:13.886Z,972.1
2018-05-11T04:04:15.539Z,972.1
2018-05-11T04:05:17.189Z,972.1
2018-05-11T04:06:18.849Z,972.1
2018-05-11T04:07:20.502Z,972.1
2018-05-11T04:08:22.149Z,972.2
2018-05-11T04:09:23.801Z,972.2
2018-05-11T04:10:25.453Z,972.2
2018-05-11T04:11:27.095Z,972.2
2018-05-11T04:12:28.749Z,972.2
2018-05-11T04:13:30.405Z,972.2
2018-05-11T04:14:32.067Z,972.3
2018-05-11T04:15:33.719Z,972.3
2018-05-11T04:16:35.372Z,972.3
2018-05-11T04:17:37.025Z,972.3
2018-05-11T04:18:38.682Z,972.3
2018-05-11T04:19:40.328Z,972.3
2018-05-11T04:20:42.042Z,972.3
2018-05-11T04:21:43.628Z,972.3
2018-05-11T04:22:45.280Z,972.3
2018-05-11T04:23:46.930Z,972.3
2018-05-11T04:24:48.588Z,972.3
2018-05-11T04:25:50.245Z,972.3
2018-05-11T04:26:51.890Z,972.3
2018-05-11T04:27:53.536Z,972.4
2018-05-11T04:28:55.196Z,972.4
2018-05-11T04:29:56.845Z,972.4
2018-05-11T04:30:58.499Z,972.4
2018-05-11T04:32:00.150Z,972.4
2018-05-11T04:33:01.807Z,972.4
2018-05-11T04:34:03.460Z,972.4
2018-05-11T04:35:05.122Z,972.4
2018-05-11T04:36:06.781Z,972.4
2018-05-11T04:37:08.446Z,972.4
2018-05-11T04:38:10.105Z,972.4
2018-05-11T04:39:11.740Z,972.5
2018-05-11T04:40:13.397Z,972.4
2018-05-11T04:41:15.052Z,972.5
2018-05-11T04:42:16.703Z,972.4
2018-05-11T04:43:18.362Z,972.5
2018-05-11T04:44:20.015Z,972.5
2018-05-11T04:45:21.714Z,972.5
2018-05-11T04:46:23.331Z,972.6
2018-05-11T04:47:24.999Z,972.6
2018-05-11T04:48:26.705Z,972.5
2018-05-11T04:49:28.363Z,972.6
2018-05-11T04:50:30.020Z,972.6
2018-05-11T04:51:31.668Z,972.6
2018-05-11T04:52:33.323Z,972.7
2018-05-11T04:53:34.980Z,972.7
2018-05-11T04:54:36.652Z,972.6
2018-05-11T04:55:38.307Z,972.7
2018-05-11T04:56:39.971Z,972.7
2018-05-11T04:57:41.625Z,972.7
2018-05-11T04:58:43.285Z,972.7
2018-05-11T04:59:44.922Z,972.8
2018-05-11T05:00:46.576Z,972.8
2018-05-11T05:01:48.249Z,972.8
2018-05-11T05:02:49.901Z,972.8
2018-05-11T05:03:51.556Z,972.8
2018-05-11T05:04:53.214Z,972.8
2018-05-11T05:05:54.878Z,972.8
2018-05-11T05:06:56.528Z,972.9
2018-05-11T05:07:58.185Z,972.9
2018-05-11T05:08:59.856Z,972.9
2018-05-11T05:10:01.511Z,972.9
2018-05-11T05:11:03.166Z,972.9
2018-05-11T05:12:04.857Z,973.0
2018-05-11T05:13:06.512Z,973.0
2018-05-11T05:14:08.161Z,972.9
2018-05-11T05:15:09.895Z,972.9
2018-05-11T05:16:11.486Z,972.9
2018-05-11T05:17:13.156Z,972.9
2018-05-11T05:18:14.819Z,972.9
2018-05-11T05:19:16.518Z,972.9
2018-05-11T05:20:18.151Z,972.9
2018-05-11T05:21:19.809Z,973.0
2018-05-11T05:22:21.471Z,973.0
2018-05-11T05:23:23.137Z,972.9
2018-05-11T05:24:24.799Z,972.9
2018-05-11T05:25:26.460Z,973.0
2018-05-11T05:26:28.126Z,973.0
2018-05-11T05:27:29.775Z,972.9
2018-05-11T05:28:31.432Z,972.9
2018-05-11T05:29:33.099Z,973.0
2018-05-11T05:30:34.755Z,973.0
2018-05-11T05:31:36.429Z,973.0
2018-05-11T05:32:38.121Z,973.0
2018-05-11T05:33:39.738Z,973.0
2018-05-11T05:34:41.400Z,973.0
2018-05-11T05:35:43.093Z,973.0
2018-05-11T05:36:44.760Z,973.0
2018-05-11T05:37:46.432Z,973.0
2018-05-11T05:38:48.135Z,973.1
2018-05-11T05:39:49.828Z,973.1
2018-05-11T05:40:51.492Z,973.1
2018-05-11T05:41:53.188Z,973.2
2018-05-11T05:42:54.895Z,973.1
2018-05-11T05:43:56.721Z,973.2
2018-05-11T05:44:58.373Z,973.1
2018-05-11T05:46:00.035Z,973.1
2018-05-11T05:47:01.698Z,973.2
2018-05-11T05:48:03.603Z,973.2
2018-05-11T05:49:05.265Z,973.2
2018-05-11T05:50:06.914Z,973.2
2018-05-11T05:51:08.602Z,973.2
2018-05-11T05:52:10.334Z,973.1
2018-05-11T05:53:11.894Z,973.2
2018-05-11T05:54:13.556Z,973.2
2018-05-11T05:55:15.278Z,973.2
2018-05-11T06:01:45.508Z,973.1
2018-05-11T06:02:47.206Z,973.1
2018-05-11T06:04:39.127Z,973.2
2018-05-11T06:05:40.645Z,973.1
2018-05-11T06:07:32.520Z,973.2
2018-05-11T06:08:34.180Z,973.2
2018-05-11T06:10:26.069Z,973.1
2018-05-11T06:11:27.830Z,973.2
2018-05-11T06:13:19.767Z,973.2
2018-05-11T06:14:21.426Z,973.2
2018-05-11T06:15:23.093Z,973.2
2018-05-11T06:16:24.759Z,973.2
2018-05-11T06:17:26.443Z,973.2
2018-05-11T06:18:28.114Z,973.2
2018-05-11T06:19:29.773Z,973.2
2018-05-11T06:20:31.441Z,973.2
2018-05-11T06:21:33.117Z,973.2
2018-05-11T06:22:34.772Z,973.2
2018-05-11T06:23:36.433Z,973.3
2018-05-11T06:24:38.095Z,973.2
2018-05-11T06:25:39.763Z,973.2
2018-05-11T06:26:41.428Z,973.2
2018-05-11T06:27:43.116Z,973.2
2018-05-11T06:28:44.778Z,973.2
2018-05-11T06:29:46.444Z,973.2
2018-05-11T06:30:48.134Z,973.2
2018-05-11T06:31:49.801Z,973.2
2018-05-11T06:32:51.520Z,973.3
2018-05-11T06:33:53.198Z,973.2
2018-05-11T06:34:54.862Z,973.2
2018-05-11T06:35:56.545Z,973.2
2018-05-11T06:36:58.214Z,973.2
2018-05-11T06:37:59.886Z,973.2
2018-05-11T06:39:01.595Z,973.2
2018-05-11T06:40:03.270Z,973.2
2018-05-11T06:41:04.973Z,973.2
2018-05-11T06:42:06.647Z,973.2
2018-05-11T06:43:08.553Z,973.2
2018-05-11T06:44:10.221Z,973.1
2018-05-11T06:45:11.889Z,973.1
2018-05-11T06:46:13.566Z,973.1
2018-05-11T06:47:15.282Z,973.1
2018-05-11T06:48:16.929Z,973.1
2018-05-11T06:49:18.623Z,973.2
2018-05-11T06:50:20.278Z,973.1
2018-05-11T06:51:21.962Z,973.1
2018-05-11T06:52:23.626Z,973.1
2018-05-11T06:53:25.287Z,973.1
2018-05-11T06:54:26.955Z,973.1
2018-05-11T06:55:28.625Z,973.2
2018-05-11T06:56:30.292Z,973.1
2018-05-11T06:57:31.967Z,973.1
2018-05-11T06:58:33.632Z,973.1
2018-05-11T06:59:35.301Z,973.2
2018-05-11T07:00:36.976Z,973.2
2018-05-11T07:01:38.658Z,973.2
2018-05-11T07:02:40.331Z,973.2
2018-05-11T07:03:42.016Z,973.2
2018-05-11T07:04:43.684Z,973.2
2018-05-11T07:05:45.383Z,973.2
2018-05-11T07:06:47.058Z,973.2
2018-05-11T07:07:48.837Z,973.2
2018-05-11T07:08:50.480Z,973.2
2018-05-11T07:09:52.144Z,973.2
2018-05-11T07:10:53.815Z,973.1
2018-05-11T07:11:55.487Z,973.1
2018-05-11T07:12:57.151Z,973.2
2018-05-11T07:13:58.826Z,973.1
2018-05-11T07:15:00.501Z,973.1
2018-05-11T07:16:02.169Z,973.1
2018-05-11T07:17:03.842Z,973.1
2018-05-11T07:18:05.519Z,973.1
2018-05-11T07:19:07.199Z,973.1
2018-05-11T07:20:08.865Z,973.1
2018-05-11T07:21:10.542Z,973.1
2018-05-11T07:22:12.209Z,973.1
2018-05-11T07:23:13.879Z,973.1
2018-05-11T07:24:15.554Z,973.1
2018-05-11T07:25:17.222Z,973.1
2018-05-11T07:26:18.888Z,973.1
2018-05-11T07:27:20.562Z,973.1
2018-05-11T07:28:22.236Z,973.0
2018-05-11T07:29:23.912Z,973.1
2018-05-11T07:30:25.588Z,973.1
2018-05-11T07:31:27.262Z,973.0
2018-05-11T07:32:28.931Z,973.1
2018-05-11T07:33:30.602Z,973.1
2018-05-11T07:34:32.272Z,973.1
2018-05-11T07:35:33.978Z,973.1
2018-05-11T07:36:35.640Z,973.1
2018-05-11T07:37:37.322Z,973.1
2018-05-11T07:38:39.054Z,973.0
2018-05-11T07:39:40.728Z,973.1
2018-05-11T07:40:42.401Z,973.0
2018-05-11T07:41:44.075Z,973.0
2018-05-11T07:42:45.749Z,973.0
2018-05-11T07:43:47.457Z,973.0
2018-05-11T07:44:49.123Z,973.0
2018-05-11T07:45:50.795Z,972.9
2018-05-11T07:46:52.471Z,973.0
2018-05-11T07:47:54.167Z,973.0
2018-05-11T07:48:55.837Z,973.0
2018-05-11T07:49:57.503Z,973.0
2018-05-11T07:50:59.181Z,973.0
2018-05-11T07:52:00.849Z,973.0
2018-05-11T07:53:02.524Z,973.0
2018-05-11T07:54:04.226Z,973.0
2018-05-11T07:55:05.883Z,973.0
2018-05-11T07:56:07.552Z,973.0
2018-05-11T07:57:09.225Z,972.9
2018-05-11T07:58:10.903Z,973.0
2018-05-11T07:59:12.572Z,972.9
2018-05-11T08:00:14.244Z,972.9
2018-05-11T08:01:15.914Z,973.0
2018-05-11T08:02:17.589Z,972.9
2018-05-11T08:03:19.353Z,973.0
2018-05-11T08:04:21.078Z,972.9
2018-05-11T08:05:22.783Z,972.9
2018-05-11T08:06:24.469Z,972.9
2018-05-11T08:07:26.182Z,972.9
2018-05-11T08:08:27.864Z,972.9
2018-05-11T08:09:29.534Z,972.9
2018-05-11T08:10:31.214Z,972.9
2018-05-11T08:11:32.888Z,972.9
2018-05-11T08:12:34.574Z,972.8
2018-05-11T08:13:36.258Z,972.8
2018-05-11T08:14:37.935Z,972.9
2018-05-11T08:15:39.627Z,972.9
2018-05-11T08:16:41.330Z,972.8
2018-05-11T08:17:43.096Z,972.9
2018-05-11T08:18:44.828Z,972.9
2018-05-11T08:19:46.482Z,972.8
2018-05-11T08:20:48.236Z,972.8
2018-05-11T08:21:49.910Z,972.9
2018-05-11T08:22:51.584Z,972.8
2018-05-11T08:23:53.258Z,972.8
2018-05-11T08:24:55.498Z,972.8
2018-05-11T08:25:57.184Z,972.8
2018-05-11T08:26:58.931Z,972.8
2018-05-11T08:28:00.530Z,972.8
2018-05-11T08:29:02.228Z,972.8
2018-05-11T08:30:03.951Z,972.8
2018-05-11T08:31:05.673Z,972.8
2018-05-11T08:32:07.365Z,972.8
2018-05-11T08:33:09.056Z,972.7
2018-05-11T08:34:10.726Z,972.7
2018-05-11T08:35:12.439Z,972.7
2018-05-11T08:36:14.130Z,972.7
2018-05-11T08:37:15.841Z,972.7
2018-05-11T08:38:17.553Z,972.7
2018-05-11T08:39:19.208Z,972.7
2018-05-11T08:40:20.881Z,972.7
2018-05-11T08:41:22.546Z,972.7
2018-05-11T08:42:24.237Z,972.7
2018-05-11T08:43:25.904Z,972.6
2018-05-11T08:44:27.580Z,972.7
2018-05-11T08:45:29.263Z,972.7
2018-05-11T08:46:30.958Z,972.7
2018-05-11T08:47:32.625Z,972.7
2018-05-11T08:48:34.313Z,972.7
2018-05-11T08:49:35.988Z,972.6
2018-05-11T08:50:38.291Z,972.7
2018-05-11T08:51:39.988Z,972.7
2018-05-11T08:52:41.659Z,972.6
2018-05-11T08:53:43.332Z,972.6
2018-05-11T08:54:46.297Z,972.7
2018-05-11T08:55:47.989Z,972.6
2018-05-11T08:56:49.578Z,972.6
2018-05-11T08:57:51.266Z,972.6
2018-05-11T08:58:52.951Z,972.6
2018-05-11T08:59:54.625Z,972.6
2018-05-11T09:00:56.294Z,972.6
2018-05-11T09:01:57.975Z,972.6
2018-05-11T09:02:59.715Z,972.7
2018-05-11T09:04:01.285Z,972.6
2018-05-11T09:05:02.970Z,972.6
2018-05-11T09:06:04.649Z,972.6
2018-05-11T09:07:06.333Z,972.6
2018-05-11T09:08:08.006Z,972.6
2018-05-11T09:09:09.687Z,972.6
2018-05-11T09:10:11.363Z,972.5
2018-05-11T09:11:13.044Z,972.5
2018-05-11T09:12:14.727Z,972.6
2018-05-11T09:13:16.415Z,972.5
2018-05-11T09:14:18.093Z,972.6
2018-05-11T09:15:19.775Z,972.6
2018-05-11T09:16:21.449Z,972.6
2018-05-11T09:17:23.158Z,972.5
2018-05-11T09:18:24.833Z,972.6
2018-05-11T09:19:26.506Z,972.6
2018-05-11T09:20:28.186Z,972.5
2018-05-11T09:21:29.974Z,972.5
2018-05-11T09:22:31.580Z,972.5
2018-05-11T09:23:33.256Z,972.5
2018-05-11T09:24:34.953Z,972.5
2018-05-11T09:25:36.631Z,972.4
2018-05-11T09:26:38.317Z,972.4
2018-05-11T09:27:39.981Z,972.4
2018-05-11T09:28:41.658Z,972.4
2018-05-11T09:29:43.413Z,972.4
2018-05-11T09:30:45.200Z,972.4
2018-05-11T09:31:46.903Z,972.4
2018-05-11T09:32:48.548Z,972.4
2018-05-11T09:33:50.224Z,972.4
2018-05-11T09:34:51.904Z,972.3
2018-05-11T09:35:53.595Z,972.4
2018-05-11T09:36:55.263Z,972.4
2018-05-11T09:37:56.936Z,972.3
2018-05-11T09:38:58.607Z,972.3
2018-05-11T09:40:00.286Z,972.3
2018-05-11T09:41:01.955Z,972.3
2018-05-11T09:42:03.644Z,972.3
2018-05-11T09:43:05.312Z,972.3
2018-05-11T09:44:06.988Z,972.3
2018-05-11T09:45:08.673Z,972.3
2018-05-11T09:46:10.400Z,972.4
2018-05-11T09:47:12.082Z,972.3
2018-05-11T09:48:13.765Z,972.3
2018-05-11T09:49:15.447Z,972.3
2018-05-11T09:50:17.144Z,972.3
2018-05-11T09:51:18.844Z,972.3
2018-05-11T09:52:20.535Z,972.3
2018-05-11T09:53:22.211Z,972.3
2018-05-11T09:54:23.886Z,972.2
2018-05-11T09:55:25.566Z,972.3
2018-05-11T10:01:26.394Z,972.2
2018-05-11T10:02:28.096Z,972.3
2018-05-11T10:04:20.005Z,972.2
2018-05-11T10:05:21.673Z,972.3
2018-05-11T10:07:13.616Z,972.3
2018-05-11T10:08:15.296Z,972.3
2018-05-11T10:09:17.249Z,972.3
2018-05-11T10:10:22.757Z,972.3
2018-05-11T10:11:24.447Z,972.2
2018-05-11T10:12:26.130Z,972.2
2018-05-11T10:13:27.810Z,972.2
2018-05-11T10:14:29.502Z,972.2
2018-05-11T10:15:31.180Z,972.2
2018-05-11T10:16:33.046Z,972.2
2018-05-11T10:17:34.656Z,972.1
2018-05-11T10:18:36.337Z,972.2
2018-05-11T10:19:38.032Z,972.2
2018-05-11T10:20:40.272Z,972.2
2018-05-11T10:21:42.004Z,972.2
2018-05-11T10:22:43.763Z,972.2
2018-05-11T10:23:46.034Z,972.2
2018-05-11T10:24:47.748Z,972.1
2018-05-11T10:25:49.427Z,972.1
2018-05-11T10:26:51.811Z,972.2
2018-05-11T10:27:53.486Z,972.1
2018-05-11T10:28:55.761Z,972.2
2018-05-11T10:29:57.390Z,972.2
2018-05-11T10:30:59.067Z,972.2
2018-05-11T10:32:00.951Z,972.1
2018-05-11T10:33:02.684Z,972.2
2018-05-11T10:34:05.999Z,972.2
2018-05-11T10:35:07.715Z,971.9
2018-05-11T10:36:09.481Z,971.9
2018-05-11T10:37:11.151Z,972.0
2018-05-11T10:38:14.004Z,971.9
2018-05-11T10:39:15.694Z,972.0
2018-05-11T10:40:19.278Z,972.1
2018-05-11T10:41:21.821Z,972.1
2018-05-11T10:42:23.734Z,972.0
2018-05-11T10:43:26.536Z,972.2
2018-05-11T10:44:28.265Z,972.2
2018-05-11T10:45:29.952Z,972.2
2018-05-11T10:46:32.287Z,972.0
2018-05-11T10:47:34.015Z,972.0
2018-05-11T10:48:35.742Z,972.1
2018-05-11T10:49:37.403Z,972.1
2018-05-11T10:50:39.086Z,972.1
2018-05-11T10:51:40.760Z,972.2
2018-05-11T10:52:43.245Z,972.1
2018-05-11T10:53:46.394Z,971.9
2018-05-11T10:54:48.149Z,971.8
2018-05-11T10:55:49.849Z,971.9
2018-05-11T10:56:51.581Z,971.9
2018-05-11T10:57:53.294Z,971.9
2018-05-11T10:58:54.986Z,972.1
2018-05-11T10:59:59.048Z,972.1
2018-05-11T11:01:00.689Z,972.1
2018-05-11T11:02:04.262Z,972.1
2018-05-11T11:03:05.970Z,972.2
2018-05-11T11:04:07.721Z,972.3
2018-05-11T11:05:09.423Z,972.3
2018-05-11T11:06:11.120Z,972.2
2018-05-11T11:07:12.823Z,972.3
2018-05-11T11:08:14.563Z,972.2
2018-05-11T11:09:16.237Z,972.2
2018-05-11T11:10:17.933Z,972.2
2018-05-11T11:11:19.608Z,972.1
2018-05-11T11:12:21.290Z,972.2
2018-05-11T11:13:22.973Z,972.2
2018-05-11T11:14:24.640Z,972.2
2018-05-11T11:15:26.322Z,972.1
2018-05-11T11:16:28.003Z,972.1
2018-05-11T11:17:29.679Z,972.1
2018-05-11T11:18:31.359Z,972.0
2018-05-11T11:19:33.046Z,971.9
2018-05-11T11:20:34.730Z,971.8
2018-05-11T11:21:36.400Z,971.8
2018-05-11T11:22:38.073Z,971.7
2018-05-11T11:23:39.748Z,971.8
2018-05-11T11:24:41.435Z,971.8
2018-05-11T11:25:43.111Z,971.8
2018-05-11T11:26:44.796Z,971.8
2018-05-11T11:27:46.464Z,971.8
2018-05-11T11:28:48.158Z,971.8
2018-05-11T11:29:49.831Z,971.9
2018-05-11T11:30:51.515Z,971.8
2018-05-11T11:31:53.202Z,971.8
2018-05-11T11:32:54.879Z,971.8
2018-05-11T11:33:56.558Z,971.6
2018-05-11T11:34:58.237Z,971.5
2018-05-11T11:35:59.910Z,971.5
2018-05-11T11:37:01.593Z,971.5
2018-05-11T11:38:03.274Z,971.5
2018-05-11T11:39:04.909Z,971.8
2018-05-11T11:40:06.625Z,971.6
2018-05-11T11:41:08.465Z,971.6
2018-05-11T11:42:10.074Z,971.8
2018-05-11T11:43:12.028Z,971.7
2018-05-11T11:44:13.697Z,971.7
2018-05-11T11:45:15.380Z,971.7
2018-05-11T11:46:17.064Z,971.7
2018-05-11T11:47:18.735Z,971.6
2018-05-11T11:48:20.423Z,971.5
2018-05-11T11:49:22.089Z,971.4
2018-05-11T11:50:23.778Z,971.4
2018-05-11T11:51:25.467Z,971.4
2018-05-11T11:52:27.152Z,971.4
2018-05-11T11:53:28.823Z,971.4
2018-05-11T11:54:30.532Z,971.4
2018-05-11T11:55:32.208Z,971.4
2018-05-11T11:56:33.872Z,971.4
2018-05-11T11:57:35.544Z,971.4
2018-05-11T11:58:37.263Z,971.5
2018-05-11T11:59:38.957Z,971.8
2018-05-11T12:00:40.643Z,971.7
2018-05-11T12:01:42.358Z,971.5
2018-05-11T12:02:44.043Z,971.5
2018-05-11T12:03:45.703Z,971.5
2018-05-11T12:04:47.408Z,971.6
2018-05-11T12:05:49.078Z,971.5
2018-05-11T12:06:50.756Z,971.6
2018-05-11T12:07:52.437Z,971.6
2018-05-11T12:08:54.173Z,971.6
2018-05-11T12:09:55.782Z,971.6
2018-05-11T12:10:57.457Z,971.6
2018-05-11T12:11:59.143Z,971.6
2018-05-11T12:13:00.906Z,971.6
2018-05-11T12:14:02.494Z,971.5
2018-05-11T12:15:04.170Z,971.4
2018-05-11T12:16:05.832Z,971.5
2018-05-11T12:17:07.517Z,971.4
2018-05-11T12:18:09.189Z,971.3
2018-05-11T12:19:10.876Z,971.3
2018-05-11T12:20:12.537Z,971.4
2018-05-11T12:21:14.223Z,971.4
2018-05-11T12:22:15.943Z,971.4
2018-05-11T12:23:17.561Z,971.3
2018-05-11T12:24:19.238Z,971.4
2018-05-11T12:25:20.922Z,971.4
2018-05-11T12:26:22.689Z,971.3
2018-05-11T12:27:24.252Z,971.3
2018-05-11T12:28:25.928Z,971.3
2018-05-11T12:29:27.556Z,971.3
2018-05-11T12:30:29.231Z,971.3
2018-05-11T12:31:30.942Z,971.2
2018-05-11T12:32:32.608Z,971.2
2018-05-11T12:33:34.275Z,971.2
2018-05-11T12:34:35.946Z,971.2
2018-05-11T12:35:37.626Z,971.5
2018-05-11T12:36:39.297Z,971.9
2018-05-11T12:37:40.974Z,971.4
2018-05-11T12:38:42.664Z,971.8
2018-05-11T12:39:44.388Z,971.5
2018-05-11T12:40:46.060Z,971.4
2018-05-11T12:41:47.759Z,971.4
2018-05-11T12:42:49.438Z,971.6
2018-05-11T12:43:51.156Z,972.0
2018-05-11T12:44:52.832Z,971.8
2018-05-11T12:45:54.504Z,971.5
2018-05-11T12:46:56.175Z,971.5
2018-05-11T12:47:57.845Z,971.6
2018-05-11T12:48:59.538Z,971.6
2018-05-11T12:50:01.211Z,971.4
2018-05-11T12:51:02.883Z,971.7
2018-05-11T12:52:04.551Z,971.5
2018-05-11T12:53:06.221Z,971.5
2018-05-11T12:54:07.908Z,971.5
2018-05-11T12:55:09.571Z,971.5
2018-05-11T12:56:11.309Z,971.5
2018-05-11T12:57:12.978Z,971.4
2018-05-11T12:58:14.669Z,971.3
2018-05-11T12:59:16.351Z,971.3
2018-05-11T13:00:18.023Z,971.3
2018-05-11T13:01:19.681Z,971.3
2018-05-11T13:02:21.355Z,971.3
2018-05-11T13:03:23.018Z,971.2
2018-05-11T13:04:24.697Z,971.3
2018-05-11T13:05:26.366Z,971.2
2018-05-11T13:06:28.061Z,971.2
2018-05-11T13:07:29.734Z,971.2
2018-05-11T13:08:31.408Z,971.2
2018-05-11T13:09:33.076Z,971.1
2018-05-11T13:10:34.819Z,971.1
2018-05-11T13:11:36.487Z,971.0
2018-05-11T13:12:38.185Z,971.0
2018-05-11T13:13:39.851Z,970.9
2018-05-11T13:14:41.520Z,970.9
2018-05-11T13:15:43.243Z,971.0
2018-05-11T13:16:44.919Z,971.0
2018-05-11T13:17:46.620Z,971.1
2018-05-11T13:18:48.286Z,971.2
2018-05-11T13:19:49.949Z,971.3
2018-05-11T13:20:51.664Z,971.1
2018-05-11T13:21:53.367Z,971.1
2018-05-11T13:22:55.050Z,971.1
2018-05-11T13:23:56.716Z,971.0
2018-05-11T13:24:58.439Z,970.9
2018-05-11T13:26:00.112Z,970.9
2018-05-11T13:27:01.772Z,970.8
2018-05-11T13:28:03.466Z,970.9
2018-05-11T13:29:05.131Z,971.0
2018-05-11T13:30:06.796Z,971.0
2018-05-11T13:31:08.463Z,971.1
2018-05-11T13:32:10.138Z,971.0
2018-05-11T13:33:11.810Z,971.0
2018-05-11T13:34:13.477Z,971.0
2018-05-11T13:35:15.143Z,970.9
2018-05-11T13:36:16.826Z,970.9
2018-05-11T13:37:18.459Z,970.9
2018-05-11T13:38:20.130Z,970.9
2018-05-11T13:39:21.804Z,971.0
2018-05-11T13:40:23.478Z,971.0
2018-05-11T13:41:25.153Z,971.0
2018-05-11T13:42:26.829Z,971.4
2018-05-11T13:43:28.501Z,971.4
2018-05-11T13:44:30.175Z,971.0